createdAt,value
2022-12-28T00:01:29.047Z,3.00
2022-12-28T00:03:58.027Z,2.57
2022-12-28T00:06:24.819Z,4.23
2022-12-28T00:08:55.644Z,2.97
2022-12-28T00:11:28.487Z,2.53
2022-12-28T00:14:00.517Z,2.30
2022-12-28T00:16:36.296Z,2.60
2022-12-28T00:19:06.588Z,2.97
2022-12-28T00:21:33.999Z,2.30
2022-12-28T00:24:01.860Z,2.33
2022-12-28T00:26:31.550Z,2.03
2022-12-28T00:29:04.271Z,1.83
2022-12-28T00:31:32.665Z,2.37
2022-12-28T00:33:59.284Z,1.60
2022-12-28T00:37:10.533Z,1.70
2022-12-28T00:39:12.982Z,1.70
2022-12-28T00:41:39.615Z,1.57
2022-12-28T00:44:06.235Z,1.83
2022-12-28T00:46:32.939Z,2.10
2022-12-28T00:48:59.619Z,1.90
2022-12-28T00:51:26.310Z,1.50
2022-12-28T00:53:53.026Z,2.20
2022-12-28T00:56:21.490Z,1.50
2022-12-28T00:58:48.892Z,1.50
2022-12-28T01:01:21.338Z,2.50
2022-12-28T01:03:48.794Z,2.00
2022-12-28T01:06:17.741Z,1.63
2022-12-28T01:08:44.764Z,1.60
2022-12-28T01:11:23.523Z,2.27
2022-12-28T01:13:52.412Z,1.70
2022-12-28T01:16:25.004Z,1.10
2022-12-28T01:18:54.364Z,1.50
2022-12-28T01:21:23.948Z,1.47
2022-12-28T01:23:55.276Z,2.10
2022-12-28T01:26:21.904Z,1.33
2022-12-28T01:28:48.527Z,1.30
2022-12-28T01:31:18.094Z,1.43
2022-12-28T01:33:45.046Z,1.17
2022-12-28T01:36:13.838Z,0.97
2022-12-28T01:38:41.314Z,1.80
2022-12-28T01:41:16.461Z,1.30
2022-12-28T01:43:54.090Z,2.93
2022-12-28T01:46:24.875Z,1.97
2022-12-28T01:49:02.649Z,1.93
2022-12-28T01:51:34.758Z,2.30
2022-12-28T01:54:01.815Z,1.90
2022-12-28T01:56:28.894Z,1.80
2022-12-28T01:58:57.436Z,1.20
2022-12-28T02:01:24.765Z,1.03
2022-12-28T02:03:51.578Z,1.33
2022-12-28T02:06:18.252Z,1.20
2022-12-28T02:08:59.959Z,1.33
2022-12-28T02:11:26.887Z,1.20
2022-12-28T02:13:54.680Z,1.70
2022-12-28T02:16:21.380Z,1.03
2022-12-28T02:18:48.714Z,1.23
2022-12-28T02:21:42.275Z,1.10
2022-12-28T02:25:12.669Z,1.20
2022-12-28T02:28:05.519Z,1.27
2022-12-28T02:30:39.098Z,1.30
2022-12-28T02:33:21.740Z,1.57
2022-12-28T02:35:55.179Z,1.80
2022-12-28T02:38:34.637Z,0.93
2022-12-28T02:41:10.953Z,0.93
2022-12-28T02:43:37.769Z,1.80
2022-12-28T02:46:51.029Z,2.07
2022-12-28T02:49:45.063Z,2.00
2022-12-28T02:52:26.517Z,1.40
2022-12-28T02:55:43.243Z,1.30
2022-12-28T02:58:28.485Z,1.47
2022-12-28T03:01:24.873Z,1.50
2022-12-28T03:04:16.832Z,1.80
2022-12-28T03:07:30.868Z,0.80
2022-12-28T03:10:18.620Z,1.30
2022-12-28T03:13:02.847Z,1.63
2022-12-28T03:15:34.529Z,1.30
2022-12-28T03:18:30.999Z,1.60
2022-12-28T03:21:21.006Z,1.73
2022-12-28T03:24:08.331Z,1.43
2022-12-28T03:26:58.474Z,1.47
2022-12-28T03:29:44.986Z,1.57
2022-12-28T03:32:11.974Z,2.03
2022-12-28T03:34:38.822Z,1.50
2022-12-28T03:37:18.438Z,1.43
2022-12-28T03:39:51.899Z,1.43
2022-12-28T03:42:49.311Z,2.97
2022-12-28T03:45:45.669Z,1.40
2022-12-28T03:48:15.749Z,2.17
2022-12-28T03:50:45.501Z,1.17
2022-12-28T03:53:12.397Z,1.23
2022-12-28T03:55:40.468Z,1.37
2022-12-28T03:58:07.545Z,1.47
2022-12-28T04:00:34.450Z,2.20
2022-12-28T04:03:01.132Z,2.00
2022-12-28T04:05:27.775Z,1.60
2022-12-28T04:07:54.370Z,2.60
2022-12-28T04:10:21.049Z,1.33
2022-12-28T04:12:47.707Z,1.90
2022-12-28T04:15:14.431Z,1.87
2022-12-28T04:17:41.025Z,1.57
2022-12-28T04:20:08.243Z,1.30
2022-12-28T04:22:34.850Z,2.13
2022-12-28T04:25:01.513Z,1.27
2022-12-28T04:27:28.276Z,1.17
2022-12-28T04:29:54.975Z,1.93
2022-12-28T04:32:21.560Z,1.73
2022-12-28T04:34:48.942Z,1.23
2022-12-28T04:37:15.921Z,1.47
2022-12-28T04:39:55.534Z,1.17
2022-12-28T04:42:27.261Z,1.43
2022-12-28T04:44:53.958Z,1.47
2022-12-28T04:47:20.829Z,1.60
2022-12-28T04:49:47.525Z,1.90
2022-12-28T04:52:14.183Z,1.20
2022-12-28T04:54:40.841Z,1.60
2022-12-28T04:57:07.496Z,2.07
2022-12-28T04:59:34.153Z,1.10
2022-12-28T05:02:01.048Z,1.50
2022-12-28T05:04:27.766Z,1.73
2022-12-28T05:06:54.447Z,1.10
2022-12-28T05:09:21.072Z,1.37
2022-12-28T05:11:47.751Z,1.43
2022-12-28T05:14:14.822Z,1.97
2022-12-28T05:16:42.327Z,1.53
2022-12-28T05:19:09.086Z,2.27
2022-12-28T05:21:36.229Z,1.30
2022-12-28T05:24:02.868Z,1.53
2022-12-28T05:26:30.080Z,1.70
2022-12-28T05:28:57.264Z,1.60
2022-12-28T05:31:24.080Z,1.30
2022-12-28T05:33:51.211Z,1.70
2022-12-28T05:36:26.159Z,1.90
2022-12-28T05:38:53.729Z,1.93
2022-12-28T05:41:26.055Z,1.97
2022-12-28T05:43:53.312Z,1.17
2022-12-28T05:46:24.572Z,1.47
2022-12-28T05:48:51.847Z,1.40
2022-12-28T05:51:20.397Z,1.77
2022-12-28T05:53:47.183Z,1.80
2022-12-28T05:56:16.552Z,1.60
2022-12-28T05:58:44.275Z,1.67
2022-12-28T06:01:16.814Z,1.50
2022-12-28T06:03:44.457Z,1.40
2022-12-28T06:06:14.095Z,1.40
2022-12-28T06:08:41.616Z,2.00
2022-12-28T06:11:10.557Z,1.63
2022-12-28T06:13:37.550Z,1.80
2022-12-28T06:16:08.127Z,1.37
2022-12-28T06:18:35.967Z,1.70
2022-12-28T06:21:05.198Z,1.70
2022-12-28T06:23:32.088Z,1.47
2022-12-28T06:26:00.258Z,1.10
2022-12-28T06:28:27.632Z,1.20
2022-12-28T06:31:04.591Z,1.10
2022-12-28T06:33:31.305Z,1.43
2022-12-28T06:35:58.286Z,1.33
2022-12-28T06:38:25.514Z,1.37
2022-12-28T06:41:12.804Z,1.20
2022-12-28T06:43:41.022Z,1.10
2022-12-28T06:46:08.110Z,1.30
2022-12-28T06:48:36.279Z,1.57
2022-12-28T06:51:05.768Z,1.20
2022-12-28T06:53:34.970Z,1.33
2022-12-28T06:56:04.436Z,1.37
2022-12-28T06:58:31.301Z,2.50
2022-12-28T07:01:04.945Z,1.13
2022-12-28T07:03:31.573Z,1.40
2022-12-28T07:06:01.534Z,1.30
2022-12-28T07:08:28.967Z,1.07
2022-12-28T07:10:55.910Z,1.33
2022-12-28T07:13:27.975Z,1.50
2022-12-28T07:15:54.964Z,1.20
2022-12-28T07:18:21.602Z,1.10
2022-12-28T07:20:48.301Z,1.37
2022-12-28T07:23:15.057Z,1.40
2022-12-28T07:25:43.426Z,1.40
2022-12-28T07:28:10.115Z,1.30
2022-12-28T07:30:36.765Z,1.30
2022-12-28T07:33:04.465Z,1.07
2022-12-28T07:35:31.080Z,1.37
2022-12-28T07:37:57.694Z,1.50
2022-12-28T07:40:24.284Z,1.60
2022-12-28T07:42:50.905Z,0.80
2022-12-28T07:45:17.483Z,1.20
2022-12-28T07:47:44.131Z,1.70
2022-12-28T07:50:10.895Z,1.37
2022-12-28T07:52:37.528Z,1.30
2022-12-28T07:55:04.711Z,1.17
2022-12-28T07:57:31.355Z,1.87
2022-12-28T07:59:57.927Z,1.30
2022-12-28T08:02:24.643Z,1.50
2022-12-28T08:04:52.405Z,1.20
2022-12-28T08:07:19.366Z,1.10
2022-12-28T08:09:45.957Z,1.23
2022-12-28T08:12:12.624Z,1.70
2022-12-28T08:14:39.274Z,1.23
2022-12-28T08:17:05.875Z,1.83
2022-12-28T08:19:32.769Z,1.50
2022-12-28T08:21:59.391Z,1.60
2022-12-28T08:24:26.001Z,1.80
2022-12-28T08:26:52.720Z,1.27
2022-12-28T08:29:21.845Z,2.30
2022-12-28T08:31:49.410Z,2.20
2022-12-28T08:34:26.776Z,2.20
2022-12-28T08:36:55.073Z,1.83
2022-12-28T08:39:21.899Z,2.80
2022-12-28T08:41:48.631Z,2.43
2022-12-28T08:44:15.248Z,1.70
2022-12-28T08:46:42.232Z,2.50
2022-12-28T08:49:09.051Z,2.40
2022-12-28T08:51:39.827Z,2.97
2022-12-28T08:54:07.303Z,3.77
2022-12-28T08:56:36.834Z,3.43
2022-12-28T08:59:04.591Z,2.43
2022-12-28T09:01:43.174Z,3.37
2022-12-28T09:04:20.900Z,3.43
2022-12-28T09:06:48.136Z,4.00
2022-12-28T09:09:17.286Z,3.23
2022-12-28T09:11:44.598Z,3.73
2022-12-28T09:14:22.191Z,3.70
2022-12-28T09:16:49.790Z,4.40
2022-12-28T09:19:16.638Z,4.23
2022-12-28T09:21:44.875Z,4.70
2022-12-28T09:24:13.211Z,5.00
2022-12-28T09:26:39.858Z,4.63
2022-12-28T09:29:08.849Z,3.80
2022-12-28T09:31:37.123Z,3.93
2022-12-28T09:36:52.413Z,4.73
2022-12-28T09:39:20.829Z,4.77
2022-12-28T09:42:03.288Z,5.83
2022-12-28T09:44:42.893Z,4.87
2022-12-28T09:47:28.178Z,4.70
2022-12-28T09:50:16.563Z,5.07
2022-12-28T09:53:05.031Z,4.60
2022-12-28T09:55:34.000Z,4.43
2022-12-28T09:58:02.288Z,2.87
2022-12-28T10:00:45.981Z,5.10
2022-12-28T10:03:23.817Z,3.77
2022-12-28T10:05:51.941Z,3.90
2022-12-28T10:08:22.273Z,4.60
2022-12-28T10:10:50.778Z,4.80
2022-12-28T10:13:53.731Z,4.00
2022-12-28T10:16:19.119Z,4.87
2022-12-28T10:18:46.981Z,4.40
2022-12-28T10:21:15.550Z,4.10
2022-12-28T10:24:12.134Z,4.10
2022-12-28T10:26:30.901Z,4.27
2022-12-28T10:29:00.343Z,4.50
2022-12-28T10:31:40.437Z,4.93
2022-12-28T10:34:22.624Z,5.40
2022-12-28T10:36:50.661Z,4.33
2022-12-28T10:39:23.313Z,3.73
2022-12-28T10:41:50.404Z,4.20
2022-12-28T10:44:40.862Z,4.47
2022-12-28T10:47:31.313Z,4.50
2022-12-28T10:52:56.136Z,4.40
2022-12-28T10:55:28.515Z,3.00
2022-12-28T10:58:27.898Z,4.67
2022-12-28T11:00:44.581Z,4.83
2022-12-28T11:03:19.551Z,4.30
2022-12-28T11:05:47.964Z,4.90
2022-12-28T11:08:23.390Z,5.40
2022-12-28T11:10:57.516Z,4.40
2022-12-28T11:13:24.336Z,4.10
2022-12-28T11:15:50.999Z,4.67
2022-12-28T11:18:18.808Z,4.30
2022-12-28T11:20:48.589Z,3.90
2022-12-28T11:23:34.759Z,4.77
2022-12-28T11:26:01.514Z,3.70
2022-12-28T11:28:28.186Z,4.40
2022-12-28T11:30:55.142Z,4.30
2022-12-28T11:33:40.605Z,4.33
2022-12-28T11:36:15.529Z,3.50
2022-12-28T11:38:47.131Z,3.40
2022-12-28T11:41:31.951Z,4.03
2022-12-28T11:44:02.889Z,4.07
2022-12-28T11:46:35.386Z,4.20
2022-12-28T11:49:31.005Z,3.40
2022-12-28T11:52:17.760Z,3.10
2022-12-28T11:55:22.976Z,2.73
2022-12-28T11:57:49.802Z,3.43
2022-12-28T12:00:22.780Z,3.80
2022-12-28T12:03:00.930Z,3.30
2022-12-28T12:05:36.636Z,3.07
2022-12-28T12:08:12.052Z,3.73
2022-12-28T12:10:39.762Z,3.70
2022-12-28T12:13:25.404Z,2.83
2022-12-28T12:16:03.994Z,2.80
2022-12-28T12:18:43.290Z,2.57
2022-12-28T12:21:20.886Z,2.50
2022-12-28T12:23:52.391Z,2.83
2022-12-28T12:26:31.044Z,3.43
2022-12-28T12:29:18.720Z,2.97
2022-12-28T12:31:54.640Z,3.33
2022-12-28T12:34:44.246Z,2.50
2022-12-28T12:37:37.270Z,2.57
2022-12-28T12:40:09.944Z,2.77
2022-12-28T12:42:54.799Z,3.07
2022-12-28T12:45:27.835Z,3.80
2022-12-28T12:48:27.712Z,3.00
2022-12-28T12:51:26.622Z,3.53
2022-12-28T12:54:09.436Z,3.20
2022-12-28T12:57:02.281Z,2.70
2022-12-28T13:00:00.655Z,3.00
2022-12-28T13:02:51.747Z,3.70
2022-12-28T13:05:22.746Z,4.10
2022-12-28T13:07:50.575Z,4.60
2022-12-28T13:10:24.826Z,3.87
2022-12-28T13:12:55.184Z,4.30
2022-12-28T13:15:21.788Z,4.00
2022-12-28T13:20:55.363Z,4.40
2022-12-28T13:23:23.764Z,3.83
2022-12-28T13:25:53.366Z,4.00
2022-12-28T13:28:31.955Z,5.00
2022-12-28T13:31:15.682Z,5.27
2022-12-28T13:33:42.422Z,6.80
2022-12-28T13:36:14.455Z,5.20
2022-12-28T13:38:41.396Z,4.17
2022-12-28T13:41:19.510Z,6.20
2022-12-28T13:44:11.940Z,6.03
2022-12-28T13:46:41.498Z,4.33
2022-12-28T13:49:08.915Z,5.03
2022-12-28T13:51:39.282Z,5.10
2022-12-28T13:54:07.817Z,1.60
2022-12-28T13:56:38.432Z,5.17
2022-12-28T13:59:10.719Z,4.97
2022-12-28T14:01:42.268Z,5.30
2022-12-28T14:04:51.018Z,4.47
2022-12-28T14:07:01.012Z,4.60
2022-12-28T14:09:28.306Z,4.63
2022-12-28T14:11:55.687Z,6.07
2022-12-28T14:14:22.384Z,5.70
2022-12-28T14:16:49.797Z,5.33
2022-12-28T14:19:16.640Z,6.07
2022-12-28T14:21:45.328Z,5.70
2022-12-28T14:24:15.099Z,5.10
2022-12-28T14:26:59.952Z,6.30
2022-12-28T14:29:29.765Z,4.60
2022-12-28T14:31:58.794Z,5.70
2022-12-28T14:34:30.577Z,5.57
2022-12-28T14:36:58.456Z,5.07
2022-12-28T14:39:26.966Z,4.93
2022-12-28T14:41:54.709Z,4.00
2022-12-28T14:44:33.961Z,4.40
2022-12-28T14:47:00.994Z,3.50
2022-12-28T14:49:30.528Z,3.00
2022-12-28T14:52:17.839Z,4.27
2022-12-28T14:54:48.584Z,3.97
2022-12-28T14:57:41.315Z,2.80
2022-12-28T15:00:29.979Z,3.00
2022-12-28T15:03:11.581Z,3.60
2022-12-28T15:05:42.964Z,3.40
2022-12-28T15:08:10.758Z,2.70
2022-12-28T15:10:43.708Z,3.20
2022-12-28T15:13:10.555Z,3.27
2022-12-28T15:15:37.308Z,4.00
2022-12-28T15:18:04.549Z,2.83
2022-12-28T15:20:31.579Z,2.80
2022-12-28T15:22:58.278Z,4.07
2022-12-28T15:25:24.900Z,3.53
2022-12-28T15:27:52.658Z,3.70
2022-12-28T15:30:25.736Z,3.40
2022-12-28T15:32:53.966Z,3.00
2022-12-28T15:35:20.909Z,2.93
2022-12-28T15:37:47.903Z,2.83
2022-12-28T15:40:14.569Z,2.90
2022-12-28T15:42:45.344Z,2.40
2022-12-28T15:45:13.218Z,2.60
2022-12-28T15:47:40.029Z,2.80
2022-12-28T15:50:07.294Z,3.00
2022-12-28T15:52:34.128Z,2.70
2022-12-28T15:55:01.025Z,2.63
2022-12-28T15:57:27.820Z,2.77
2022-12-28T15:59:55.381Z,2.47
2022-12-28T16:02:23.262Z,2.80
2022-12-28T16:04:50.127Z,2.73
2022-12-28T16:07:19.057Z,2.43
2022-12-28T16:09:46.200Z,2.60
2022-12-28T16:12:17.230Z,3.03
2022-12-28T16:14:46.023Z,3.03
2022-12-28T16:17:13.177Z,2.80
2022-12-28T16:19:39.947Z,3.00
2022-12-28T16:22:07.054Z,2.77
2022-12-28T16:24:33.723Z,2.90
2022-12-28T16:27:00.474Z,2.93
2022-12-28T16:29:27.172Z,3.47
2022-12-28T16:31:55.220Z,3.00
2022-12-28T16:34:22.013Z,3.57
2022-12-28T16:36:48.632Z,2.50
2022-12-28T16:39:17.337Z,3.77
2022-12-28T16:41:44.479Z,3.20
2022-12-28T16:44:21.367Z,3.53
2022-12-28T16:46:48.533Z,3.73
2022-12-28T16:49:15.476Z,3.70
2022-12-28T16:51:43.954Z,4.20
2022-12-28T16:54:23.756Z,3.80
2022-12-28T16:56:51.346Z,4.07
2022-12-28T16:59:20.765Z,3.80
2022-12-28T17:01:48.400Z,4.70
2022-12-28T17:04:15.497Z,4.70
2022-12-28T17:06:46.419Z,4.37
2022-12-28T17:09:16.268Z,4.97
2022-12-28T17:11:43.151Z,5.17
2022-12-28T17:14:11.813Z,4.70
2022-12-28T17:16:39.104Z,4.30
2022-12-28T17:19:06.395Z,4.33
2022-12-28T17:21:33.569Z,3.80
2022-12-28T17:24:00.453Z,4.37
2022-12-28T17:26:27.451Z,4.47
2022-12-28T17:28:54.399Z,4.73
2022-12-28T17:31:23.076Z,4.20
2022-12-28T17:33:53.877Z,5.97
2022-12-28T17:36:21.179Z,5.50
2022-12-28T17:38:48.092Z,5.27
2022-12-28T17:41:21.139Z,4.87
2022-12-28T17:43:52.357Z,5.77
2022-12-28T17:46:19.939Z,5.03
2022-12-28T17:48:46.884Z,5.00
2022-12-28T17:51:13.716Z,4.17
2022-12-28T17:53:40.693Z,5.00
2022-12-28T17:56:10.835Z,5.40
2022-12-28T17:58:37.468Z,4.83
2022-12-28T18:01:04.728Z,5.43
2022-12-28T18:03:33.870Z,5.77
2022-12-28T18:06:01.478Z,5.33
2022-12-28T18:08:28.388Z,5.60
2022-12-28T18:10:55.278Z,5.20
2022-12-28T18:13:22.202Z,5.60
2022-12-28T18:15:49.167Z,5.70
2022-12-28T18:18:17.205Z,5.00
2022-12-28T18:20:44.181Z,3.90
2022-12-28T18:23:11.402Z,5.20
2022-12-28T18:25:38.679Z,4.37
2022-12-28T18:28:05.468Z,4.90
2022-12-28T18:30:32.110Z,4.63
2022-12-28T18:32:58.792Z,4.87
2022-12-28T18:35:26.796Z,4.57
2022-12-28T18:37:53.814Z,5.13
2022-12-28T18:40:20.656Z,4.33
2022-12-28T18:42:47.810Z,4.73
2022-12-28T18:45:14.633Z,4.57
2022-12-28T18:47:41.532Z,3.90
2022-12-28T18:50:09.012Z,4.27
2022-12-28T18:52:36.156Z,3.93
2022-12-28T18:55:03.798Z,4.70
2022-12-28T18:57:30.447Z,3.63
2022-12-28T18:59:57.259Z,3.57
2022-12-28T19:02:23.991Z,3.50
2022-12-28T19:04:53.273Z,3.70
2022-12-28T19:07:20.325Z,5.00
2022-12-28T19:10:12.726Z,3.63
2022-12-28T19:12:41.425Z,5.73
2022-12-28T19:15:08.752Z,3.40
2022-12-28T19:17:35.746Z,3.67
2022-12-28T19:20:02.531Z,2.60
2022-12-28T19:22:30.120Z,2.30
2022-12-28T19:24:56.806Z,2.60
2022-12-28T19:27:23.759Z,2.43
2022-12-28T19:29:50.716Z,2.40
2022-12-28T19:32:17.507Z,2.67
2022-12-28T19:34:44.186Z,2.10
2022-12-28T19:37:10.946Z,2.17
2022-12-28T19:39:37.672Z,2.70
2022-12-28T19:42:04.551Z,2.40
2022-12-28T19:44:31.381Z,2.07
2022-12-28T19:46:58.784Z,2.30
2022-12-28T19:49:25.785Z,2.17
2022-12-28T19:51:52.398Z,2.17
2022-12-28T19:54:19.146Z,2.43
2022-12-28T19:56:45.797Z,2.40
2022-12-28T19:59:12.564Z,2.07
2022-12-28T20:01:39.495Z,1.70
2022-12-28T20:04:13.053Z,2.00
2022-12-28T20:06:42.474Z,2.87
2022-12-28T20:09:09.484Z,2.07
2022-12-28T20:11:36.667Z,1.83
2022-12-28T20:14:04.507Z,2.30
2022-12-28T20:16:32.841Z,1.50
2022-12-28T20:19:01.616Z,2.00
2022-12-28T20:21:28.638Z,2.10
2022-12-28T20:23:55.362Z,1.53
2022-12-28T20:26:24.835Z,1.47
2022-12-28T20:28:52.149Z,1.70
2022-12-28T20:31:19.282Z,1.47
2022-12-28T20:33:46.053Z,1.93
2022-12-28T20:36:21.995Z,1.70
2022-12-28T20:38:49.649Z,2.00
2022-12-28T20:41:37.366Z,2.00
2022-12-28T20:44:21.137Z,2.13
2022-12-28T20:46:47.827Z,1.73
2022-12-28T20:49:14.573Z,1.93
2022-12-28T20:51:42.395Z,1.77
2022-12-28T20:54:12.642Z,2.20
2022-12-28T20:56:41.794Z,1.53
2022-12-28T20:59:09.844Z,1.83
2022-12-28T21:01:37.647Z,2.00
2022-12-28T21:04:05.348Z,1.90
2022-12-28T21:06:32.975Z,2.10
2022-12-28T21:08:59.910Z,1.70
2022-12-28T21:11:28.687Z,2.20
2022-12-28T21:13:55.360Z,2.00
2022-12-28T21:16:22.090Z,1.80
2022-12-28T21:18:50.538Z,2.30
2022-12-28T21:21:21.948Z,1.80
2022-12-28T21:23:49.221Z,2.30
2022-12-28T21:26:17.657Z,2.67
2022-12-28T21:28:44.946Z,2.47
2022-12-28T21:31:12.388Z,2.10
2022-12-28T21:33:39.786Z,1.30
2022-12-28T21:36:12.577Z,2.00
2022-12-28T21:38:41.126Z,2.80
2022-12-28T21:41:17.212Z,2.50
2022-12-28T21:43:43.901Z,2.30
2022-12-28T21:46:14.953Z,2.17
2022-12-28T21:48:42.074Z,1.70
2022-12-28T21:51:31.970Z,1.53
2022-12-28T21:54:14.984Z,2.10
2022-12-28T21:56:43.557Z,2.00
2022-12-28T21:59:12.253Z,1.63
2022-12-28T22:01:59.113Z,2.23
2022-12-28T22:04:44.671Z,2.67
2022-12-28T22:07:12.757Z,1.63
2022-12-28T22:09:58.693Z,1.67
2022-12-28T22:12:35.251Z,2.37
2022-12-28T22:15:34.066Z,1.83
2022-12-28T22:21:15.080Z,2.20
2022-12-28T22:23:41.719Z,1.70
2022-12-28T22:26:08.349Z,2.13
2022-12-28T22:28:35.139Z,2.80
2022-12-28T22:31:05.908Z,2.13
2022-12-28T22:33:32.679Z,2.10
2022-12-28T22:36:09.358Z,1.70
2022-12-28T22:38:36.079Z,2.13
2022-12-28T22:41:02.767Z,2.43
2022-12-28T22:43:29.612Z,2.03
2022-12-28T22:46:11.316Z,1.70
2022-12-28T22:48:38.254Z,1.73
2022-12-28T22:51:08.026Z,1.80
2022-12-28T22:53:36.368Z,2.13
2022-12-28T22:56:05.672Z,2.13
2022-12-28T22:58:32.591Z,1.47
2022-12-28T23:01:14.257Z,1.60
2022-12-28T23:03:42.719Z,2.17
2022-12-28T23:06:11.967Z,2.13
2022-12-28T23:08:39.113Z,2.03
2022-12-28T23:11:26.694Z,2.07
2022-12-28T23:13:53.293Z,5.10
2022-12-28T23:16:20.085Z,1.50
2022-12-28T23:19:05.519Z,1.93
2022-12-28T23:21:50.627Z,1.60
2022-12-28T23:24:36.157Z,1.60
2022-12-28T23:27:21.237Z,1.17
2022-12-28T23:29:47.885Z,2.13
2022-12-28T23:32:14.538Z,1.70
2022-12-28T23:34:41.200Z,2.17
2022-12-28T23:37:07.871Z,2.03
2022-12-28T23:39:34.522Z,1.60
2022-12-28T23:42:01.139Z,2.10
2022-12-28T23:44:27.924Z,2.27
2022-12-28T23:46:58.947Z,1.80
2022-12-28T23:49:26.340Z,2.03
2022-12-28T23:51:53.031Z,1.67
2022-12-28T23:54:20.457Z,1.47
2022-12-28T23:56:48.786Z,2.10
2022-12-28T23:59:15.649Z,1.87
